createdAt,value
2023-02-04T00:00:38.946Z,3.39
2023-02-04T00:03:07.330Z,3.41
2023-02-04T00:05:35.516Z,3.42
2023-02-04T00:08:03.861Z,3.42
2023-02-04T00:10:32.313Z,3.43
2023-02-04T00:13:00.566Z,3.38
2023-02-04T00:15:28.596Z,3.32
2023-02-04T00:17:57.927Z,3.29
2023-02-04T00:20:25.796Z,3.26
2023-02-04T00:22:53.709Z,3.20
2023-02-04T00:25:21.594Z,3.17
2023-02-04T00:27:49.566Z,3.19
2023-02-04T00:30:17.961Z,3.20
2023-02-04T00:32:45.865Z,3.21
2023-02-04T00:35:15.253Z,3.19
2023-02-04T00:37:43.208Z,3.17
2023-02-04T00:40:12.402Z,3.11
2023-02-04T00:42:41.014Z,3.00
2023-02-04T00:45:09.924Z,3.00
2023-02-04T00:47:37.889Z,3.06
2023-02-04T00:50:06.402Z,3.04
2023-02-04T00:52:35.695Z,3.03
2023-02-04T00:55:03.863Z,3.15
2023-02-04T00:57:31.782Z,3.11
2023-02-04T00:59:59.749Z,3.10
2023-02-04T01:02:27.681Z,3.15
2023-02-04T01:04:55.561Z,3.19
2023-02-04T01:07:23.487Z,3.20
2023-02-04T01:09:52.796Z,3.15
2023-02-04T01:12:23.004Z,3.08
2023-02-04T01:14:51.092Z,3.09
2023-02-04T01:17:19.908Z,3.13
2023-02-04T01:19:47.964Z,3.06
2023-02-04T01:22:15.864Z,3.11
2023-02-04T01:24:43.801Z,3.09
2023-02-04T01:27:48.365Z,3.05
2023-02-04T01:30:16.845Z,3.09
2023-02-04T01:32:44.788Z,3.12
2023-02-04T01:35:12.682Z,3.12
2023-02-04T01:37:40.594Z,3.11
2023-02-04T01:40:09.612Z,3.06
2023-02-04T01:42:37.610Z,3.04
2023-02-04T01:45:08.446Z,3.05
2023-02-04T01:47:36.675Z,3.03
2023-02-04T01:50:08.817Z,3.03
2023-02-04T01:52:40.861Z,3.02
2023-02-04T01:55:15.868Z,3.00
2023-02-04T01:57:45.154Z,3.02
2023-02-04T02:00:18.244Z,3.01
2023-02-04T02:02:50.664Z,3.01
2023-02-04T02:05:23.268Z,3.01
2023-02-04T02:07:54.157Z,3.00
2023-02-04T02:10:22.468Z,2.98
2023-02-04T02:12:50.609Z,3.02
2023-02-04T02:15:20.230Z,2.99
2023-02-04T02:17:48.611Z,2.94
2023-02-04T02:20:19.174Z,2.96
2023-02-04T02:22:57.111Z,2.94
2023-02-04T02:25:26.408Z,2.93
2023-02-04T02:27:55.293Z,2.89
2023-02-04T02:30:23.665Z,2.87
2023-02-04T02:32:53.288Z,2.85
2023-02-04T02:35:22.236Z,2.80
2023-02-04T02:37:50.936Z,2.80
2023-02-04T02:40:19.620Z,2.81
2023-02-04T02:42:52.553Z,2.76
2023-02-04T02:45:26.632Z,2.79
2023-02-04T02:47:55.476Z,2.76
2023-02-04T02:50:26.552Z,2.80
2023-02-04T02:52:55.701Z,2.74
2023-02-04T02:55:26.306Z,2.66
2023-02-04T02:57:57.065Z,2.70
2023-02-04T03:00:28.257Z,2.74
2023-02-04T03:03:02.748Z,2.69
2023-02-04T03:05:33.724Z,2.70
2023-02-04T03:08:01.928Z,2.59
2023-02-04T03:10:30.232Z,2.59
2023-02-04T03:13:00.884Z,2.73
2023-02-04T03:15:29.090Z,2.82
2023-02-04T03:17:57.373Z,2.85
2023-02-04T03:20:27.802Z,2.85
2023-02-04T03:22:56.551Z,2.82
2023-02-04T03:25:26.666Z,2.80
2023-02-04T03:27:55.074Z,2.75
2023-02-04T03:30:25.525Z,2.68
2023-02-04T03:32:53.961Z,2.66
2023-02-04T03:35:22.212Z,2.45
2023-02-04T03:37:50.172Z,2.55
2023-02-04T03:40:18.317Z,2.61
2023-02-04T03:42:46.204Z,2.63
2023-02-04T03:45:14.176Z,2.66
2023-02-04T03:47:43.476Z,2.43
2023-02-04T03:50:13.968Z,2.57
2023-02-04T03:52:41.879Z,2.64
2023-02-04T03:55:10.053Z,2.66
2023-02-04T03:57:37.996Z,2.67
2023-02-04T04:00:06.511Z,2.76
2023-02-04T04:02:39.750Z,2.79
2023-02-04T04:05:10.601Z,2.82
2023-02-04T04:07:38.578Z,2.86
2023-02-04T04:10:06.895Z,2.92
2023-02-04T04:12:34.808Z,2.94
2023-02-04T04:15:02.734Z,2.97
2023-02-04T04:17:30.735Z,3.02
2023-02-04T04:19:58.647Z,3.09
2023-02-04T04:22:27.940Z,3.12
2023-02-04T04:24:56.156Z,3.14
2023-02-04T04:27:24.056Z,3.15
2023-02-04T04:29:52.098Z,3.13
2023-02-04T04:32:20.087Z,3.08
2023-02-04T04:34:47.940Z,3.05
2023-02-04T04:37:15.886Z,3.03
2023-02-04T04:39:45.158Z,3.01
2023-02-04T04:42:13.123Z,2.97
2023-02-04T04:44:41.038Z,2.94
2023-02-04T04:47:08.993Z,2.91
2023-02-04T04:49:36.962Z,2.88
2023-02-04T04:52:05.181Z,2.87
2023-02-04T04:54:33.064Z,2.84
2023-02-04T04:57:02.322Z,2.80
2023-02-04T04:59:30.233Z,2.77
2023-02-04T05:01:58.134Z,2.75
2023-02-04T05:04:26.069Z,2.81
2023-02-04T05:06:53.962Z,2.79
2023-02-04T05:09:21.834Z,2.80
2023-02-04T05:11:49.755Z,2.78
2023-02-04T05:14:19.051Z,2.74
2023-02-04T05:16:46.990Z,2.72
2023-02-04T05:19:14.881Z,2.69
2023-02-04T05:21:42.939Z,2.67
2023-02-04T05:24:10.820Z,2.72
2023-02-04T05:26:38.775Z,2.72
2023-02-04T05:29:07.050Z,2.73
2023-02-04T05:31:36.405Z,2.71
2023-02-04T05:34:04.379Z,2.72
2023-02-04T05:36:32.284Z,2.74
2023-02-04T05:39:00.204Z,2.79
2023-02-04T05:41:28.086Z,2.81
2023-02-04T05:43:55.992Z,2.80
2023-02-04T05:46:23.914Z,2.84
2023-02-04T05:48:53.381Z,2.91
2023-02-04T05:51:21.273Z,2.93
2023-02-04T05:53:49.648Z,3.00
2023-02-04T05:56:17.567Z,2.97
2023-02-04T05:58:45.505Z,2.89
2023-02-04T06:01:13.656Z,2.92
2023-02-04T06:03:41.609Z,2.91
2023-02-04T06:06:10.915Z,2.92
2023-02-04T06:08:38.836Z,2.94
2023-02-04T06:11:07.160Z,2.99
2023-02-04T06:13:35.061Z,3.02
2023-02-04T06:16:02.957Z,3.05
2023-02-04T06:18:30.855Z,3.05
2023-02-04T06:20:58.769Z,3.09
2023-02-04T06:23:28.071Z,3.11
2023-02-04T06:25:55.999Z,3.13
2023-02-04T06:28:23.894Z,3.16
2023-02-04T06:30:51.926Z,3.13
2023-02-04T06:33:21.395Z,3.14
2023-02-04T06:35:49.346Z,3.06
2023-02-04T06:38:17.398Z,3.04
2023-02-04T06:40:49.403Z,2.99
2023-02-04T06:43:17.681Z,3.00
2023-02-04T06:45:45.700Z,3.00
2023-02-04T06:48:13.637Z,2.88
2023-02-04T06:50:41.544Z,2.83
2023-02-04T06:53:09.482Z,2.80
2023-02-04T06:55:37.492Z,2.77
2023-02-04T06:58:06.811Z,2.77
2023-02-04T07:00:34.986Z,2.78
2023-02-04T07:03:03.040Z,2.73
2023-02-04T07:05:31.421Z,2.69
2023-02-04T07:07:59.365Z,2.66
2023-02-04T07:10:27.288Z,2.61
2023-02-04T07:12:55.255Z,2.63
2023-02-04T07:15:24.643Z,2.65
2023-02-04T07:17:52.570Z,2.65
2023-02-04T07:20:20.779Z,2.67
2023-02-04T07:22:48.699Z,2.71
2023-02-04T07:25:17.934Z,2.67
2023-02-04T07:27:46.032Z,2.62
2023-02-04T07:30:14.746Z,2.56
2023-02-04T07:32:44.012Z,2.54
2023-02-04T07:35:12.574Z,2.50
2023-02-04T07:37:40.461Z,2.63
2023-02-04T07:40:10.293Z,2.70
2023-02-04T07:42:38.236Z,2.74
2023-02-04T07:45:12.157Z,2.77
2023-02-04T07:47:40.037Z,2.83
2023-02-04T07:50:09.878Z,2.97
2023-02-04T07:52:37.744Z,3.01
2023-02-04T07:55:06.027Z,3.04
2023-02-04T07:57:33.964Z,3.18
2023-02-04T08:00:01.918Z,3.13
2023-02-04T08:02:29.936Z,3.22
2023-02-04T08:04:57.861Z,3.45
2023-02-04T08:07:27.241Z,3.58
2023-02-04T08:09:55.146Z,3.68
2023-02-04T08:12:23.053Z,3.79
2023-02-04T08:14:51.029Z,3.77
2023-02-04T08:17:18.888Z,3.83
2023-02-04T08:19:46.788Z,3.88
2023-02-04T08:22:14.722Z,3.85
2023-02-04T08:24:44.005Z,3.90
2023-02-04T08:27:12.659Z,3.90
2023-02-04T08:29:40.578Z,3.90
2023-02-04T08:32:10.075Z,3.95
2023-02-04T08:34:38.106Z,3.99
2023-02-04T08:37:06.207Z,4.00
2023-02-04T08:39:34.120Z,4.05
2023-02-04T08:42:03.406Z,3.94
2023-02-04T08:44:31.316Z,3.89
2023-02-04T08:46:59.261Z,4.04
2023-02-04T08:49:27.418Z,4.09
2023-02-04T08:51:55.373Z,4.14
2023-02-04T08:54:23.278Z,4.12
2023-02-04T08:56:51.180Z,4.12
2023-02-04T08:59:21.768Z,4.11
2023-02-04T09:01:52.578Z,4.19
2023-02-04T09:04:21.428Z,4.20
2023-02-04T09:06:49.771Z,4.24
2023-02-04T09:09:17.836Z,4.09
2023-02-04T09:11:45.820Z,4.01
2023-02-04T09:14:13.949Z,4.13
2023-02-04T09:16:43.305Z,4.25
2023-02-04T09:19:16.268Z,4.25
2023-02-04T09:21:44.187Z,4.25
2023-02-04T09:24:12.063Z,4.29
2023-02-04T09:26:39.958Z,4.25
2023-02-04T09:29:07.851Z,4.26
2023-02-04T09:31:35.773Z,4.34
2023-02-04T09:34:05.080Z,4.16
2023-02-04T09:36:37.909Z,4.13
2023-02-04T09:39:07.039Z,4.14
2023-02-04T09:41:36.061Z,4.24
2023-02-04T09:44:06.142Z,4.26
2023-02-04T09:46:34.457Z,4.37
2023-02-04T09:49:03.673Z,4.36
2023-02-04T09:51:35.514Z,4.37
2023-02-04T09:54:09.873Z,4.41
2023-02-04T09:56:37.876Z,4.37
2023-02-04T09:59:06.445Z,4.54
2023-02-04T10:01:34.388Z,4.57
2023-02-04T10:04:03.167Z,4.75
2023-02-04T10:06:32.871Z,4.75
2023-02-04T10:09:00.852Z,4.81
2023-02-04T10:11:31.651Z,4.92
2023-02-04T10:13:59.654Z,4.88
2023-02-04T10:16:31.239Z,4.88
2023-02-04T10:19:00.636Z,4.88
2023-02-04T10:21:30.272Z,4.93
2023-02-04T10:24:00.696Z,4.96
2023-02-04T10:26:31.530Z,5.02
2023-02-04T10:29:01.562Z,5.04
2023-02-04T10:31:36.092Z,5.07
2023-02-04T10:34:06.104Z,5.13
2023-02-04T10:36:34.086Z,5.25
2023-02-04T10:39:04.706Z,5.37
2023-02-04T10:41:33.529Z,5.45
2023-02-04T10:44:06.153Z,5.65
2023-02-04T10:46:34.116Z,5.75
2023-02-04T10:49:04.865Z,6.03
2023-02-04T10:51:33.344Z,6.32
2023-02-04T10:54:18.760Z,6.47
2023-02-04T10:56:48.040Z,6.59
2023-02-04T10:59:26.782Z,6.76
2023-02-04T11:01:57.194Z,7.01
2023-02-04T11:04:25.453Z,7.19
2023-02-04T11:06:54.373Z,7.29
2023-02-04T11:09:22.848Z,7.44
2023-02-04T11:11:52.871Z,7.59
2023-02-04T11:14:29.323Z,7.83
2023-02-04T11:17:01.061Z,7.79
2023-02-04T11:19:35.286Z,7.86
2023-02-04T11:22:23.719Z,8.00
2023-02-04T11:24:52.541Z,8.06
2023-02-04T11:27:25.170Z,8.04
2023-02-04T11:29:53.929Z,8.10
2023-02-04T11:32:34.826Z,8.05
2023-02-04T11:35:25.434Z,8.20
2023-02-04T11:37:55.049Z,8.36
2023-02-04T11:40:29.876Z,8.40
2023-02-04T11:43:01.965Z,8.51
2023-02-04T11:45:33.253Z,8.53
2023-02-04T11:48:03.951Z,8.66
2023-02-04T11:50:33.805Z,9.41
2023-02-04T11:53:03.060Z,9.26
2023-02-04T11:55:33.371Z,9.07
2023-02-04T11:58:03.079Z,9.00
2023-02-04T12:00:33.234Z,9.04
2023-02-04T12:03:06.178Z,9.02
2023-02-04T12:05:41.016Z,9.06
2023-02-04T12:08:14.024Z,9.04
2023-02-04T12:10:49.668Z,9.10
2023-02-04T12:13:23.735Z,9.13
2023-02-04T12:15:59.321Z,9.24
2023-02-04T12:18:28.768Z,9.33
2023-02-04T12:20:57.500Z,9.38
2023-02-04T12:23:26.085Z,9.44
2023-02-04T12:25:54.543Z,9.53
2023-02-04T12:28:24.404Z,9.53
2023-02-04T12:30:52.497Z,9.46
2023-02-04T12:33:20.488Z,9.48
2023-02-04T12:35:48.586Z,9.66
2023-02-04T12:38:16.518Z,9.64
2023-02-04T12:40:44.688Z,9.62
2023-02-04T12:43:12.653Z,9.67
2023-02-04T12:45:45.745Z,9.72
2023-02-04T12:48:15.104Z,9.74
2023-02-04T12:50:43.104Z,9.85
2023-02-04T12:53:11.096Z,9.76
2023-02-04T12:55:39.094Z,9.70
2023-02-04T12:58:06.992Z,9.76
2023-02-04T13:00:34.973Z,9.80
2023-02-04T13:03:05.324Z,9.87
2023-02-04T13:05:34.146Z,9.91
2023-02-04T13:08:02.174Z,9.92
2023-02-04T13:10:30.224Z,10.04
2023-02-04T13:12:58.131Z,10.00
2023-02-04T13:15:26.024Z,10.01
2023-02-04T13:17:54.021Z,10.01
2023-02-04T13:20:23.496Z,9.92
2023-02-04T13:22:51.425Z,9.83
2023-02-04T13:25:20.531Z,9.92
2023-02-04T13:27:48.505Z,10.03
2023-02-04T13:30:16.987Z,9.97
2023-02-04T13:32:44.991Z,9.92
2023-02-04T13:35:12.876Z,10.03
2023-02-04T13:37:42.141Z,10.12
2023-02-04T13:40:12.108Z,10.07
2023-02-04T13:42:40.069Z,10.18
2023-02-04T13:45:12.269Z,10.24
2023-02-04T13:47:40.528Z,10.31
2023-02-04T13:50:09.421Z,10.47
2023-02-04T13:52:37.369Z,10.45
2023-02-04T13:55:07.390Z,10.55
2023-02-04T13:57:37.367Z,10.53
2023-02-04T14:00:06.883Z,10.63
2023-02-04T14:02:40.535Z,10.75
2023-02-04T14:05:08.629Z,10.80
2023-02-04T14:07:36.574Z,10.77
2023-02-04T14:10:06.584Z,10.79
2023-02-04T14:12:34.548Z,10.73
2023-02-04T14:15:02.459Z,10.57
2023-02-04T14:17:30.366Z,10.49
2023-02-04T14:19:58.287Z,10.46
2023-02-04T14:22:26.197Z,10.49
2023-02-04T14:24:54.140Z,10.60
2023-02-04T14:27:24.241Z,10.53
2023-02-04T14:29:52.131Z,10.47
2023-02-04T14:32:20.931Z,10.66
2023-02-04T14:34:48.965Z,10.79
2023-02-04T14:37:16.876Z,10.66
2023-02-04T14:39:44.828Z,10.77
2023-02-04T14:42:12.700Z,10.72
2023-02-04T14:44:41.977Z,10.62
2023-02-04T14:47:09.886Z,10.80
2023-02-04T14:49:38.133Z,10.74
2023-02-04T14:52:06.508Z,10.88
2023-02-04T14:54:34.476Z,10.92
2023-02-04T14:57:02.551Z,10.92
2023-02-04T14:59:30.508Z,10.98
2023-02-04T15:01:59.790Z,11.07
2023-02-04T15:04:27.792Z,10.92
2023-02-04T15:06:57.654Z,10.94
2023-02-04T15:09:25.637Z,10.93
2023-02-04T15:11:53.592Z,11.02
2023-02-04T15:14:21.508Z,11.06
2023-02-04T15:16:49.486Z,11.12
2023-02-04T15:19:19.506Z,11.11
2023-02-04T15:21:47.581Z,11.02
2023-02-04T15:24:15.510Z,11.04
2023-02-04T15:26:43.431Z,11.10
2023-02-04T15:29:11.346Z,11.02
2023-02-04T15:31:39.319Z,10.98
2023-02-04T15:34:07.330Z,11.03
2023-02-04T15:36:36.596Z,11.15
2023-02-04T15:39:05.224Z,11.23
2023-02-04T15:41:33.235Z,11.20
2023-02-04T15:44:01.111Z,11.13
2023-02-04T15:46:29.040Z,11.22
2023-02-04T15:48:56.991Z,11.19
2023-02-04T15:51:24.943Z,11.06
2023-02-04T15:53:54.260Z,11.03
2023-02-04T15:56:22.224Z,11.15
2023-02-04T15:58:50.170Z,11.08
2023-02-04T16:01:18.082Z,11.06
2023-02-04T16:03:47.274Z,11.00
2023-02-04T16:06:15.161Z,11.02
2023-02-04T16:08:43.185Z,11.00
2023-02-04T16:11:12.435Z,11.06
2023-02-04T16:13:40.320Z,10.86
2023-02-04T16:16:09.040Z,10.86
2023-02-04T16:18:36.976Z,10.87
2023-02-04T16:21:05.185Z,10.82
2023-02-04T16:23:33.225Z,10.84
2023-02-04T16:26:01.074Z,10.78
2023-02-04T16:28:30.368Z,10.59
2023-02-04T16:30:58.422Z,10.38
2023-02-04T16:33:27.965Z,10.11
2023-02-04T16:36:00.975Z,10.07
2023-02-04T16:38:29.929Z,9.93
2023-02-04T16:40:58.395Z,9.86
2023-02-04T16:43:26.748Z,9.80
2023-02-04T16:45:56.204Z,9.66
2023-02-04T16:48:24.979Z,9.59
2023-02-04T16:50:52.892Z,9.54
2023-02-04T16:53:20.802Z,9.43
2023-02-04T16:55:49.165Z,9.35
2023-02-04T16:58:18.104Z,9.29
2023-02-04T17:00:46.053Z,9.27
2023-02-04T17:03:16.061Z,9.22
2023-02-04T17:05:44.371Z,9.10
2023-02-04T17:08:13.672Z,9.10
2023-02-04T17:10:59.606Z,9.05
2023-02-04T17:13:27.518Z,9.04
2023-02-04T17:16:00.644Z,8.98
2023-02-04T17:18:31.255Z,8.94
2023-02-04T17:21:00.268Z,8.91
2023-02-04T17:23:29.335Z,8.88
2023-02-04T17:25:57.252Z,8.83
2023-02-04T17:28:26.213Z,8.78
2023-02-04T17:30:54.299Z,8.75
2023-02-04T17:33:22.307Z,8.73
2023-02-04T17:35:51.678Z,8.70
2023-02-04T17:38:19.559Z,8.63
2023-02-04T17:40:47.747Z,8.58
2023-02-04T17:43:15.624Z,8.57
2023-02-04T17:45:43.855Z,8.57
2023-02-04T17:48:11.756Z,8.53
2023-02-04T17:50:40.292Z,8.49
2023-02-04T17:53:11.407Z,8.47
2023-02-04T17:55:40.010Z,8.35
2023-02-04T17:58:14.245Z,8.39
2023-02-04T18:00:44.512Z,8.37
2023-02-04T18:03:14.010Z,8.34
2023-02-04T18:05:46.106Z,8.31
2023-02-04T18:08:17.068Z,8.21
2023-02-04T18:10:46.487Z,8.29
2023-02-04T18:13:17.279Z,8.25
2023-02-04T18:15:47.418Z,8.33
2023-02-04T18:18:26.292Z,8.28
2023-02-04T18:21:15.420Z,8.25
2023-02-04T18:23:46.014Z,8.20
2023-02-04T18:26:17.825Z,8.17
2023-02-04T18:28:48.816Z,8.15
2023-02-04T18:31:34.313Z,8.13
2023-02-04T18:34:03.147Z,8.12
2023-02-04T18:36:34.477Z,8.07
2023-02-04T18:39:20.323Z,8.09
2023-02-04T18:41:50.579Z,8.09
2023-02-04T18:44:31.084Z,8.08
2023-02-04T18:46:59.422Z,8.05
2023-02-04T18:49:29.021Z,7.98
2023-02-04T18:51:59.797Z,7.98
2023-02-04T18:54:35.523Z,7.92
2023-02-04T18:57:21.692Z,7.91
2023-02-04T18:59:49.893Z,7.90
2023-02-04T19:02:36.396Z,7.83
2023-02-04T19:05:19.078Z,7.84
2023-02-04T19:07:46.965Z,7.81
2023-02-04T19:10:29.256Z,7.80
2023-02-04T19:13:12.044Z,7.72
2023-02-04T19:15:40.317Z,7.74
2023-02-04T19:18:22.492Z,7.73
2023-02-04T19:20:50.489Z,7.73
2023-02-04T19:23:21.783Z,7.75
2023-02-04T19:25:52.343Z,7.77
2023-02-04T19:28:29.218Z,7.74
2023-02-04T19:31:02.026Z,7.66
2023-02-04T19:33:37.583Z,7.67
2023-02-04T19:36:22.565Z,7.63
2023-02-04T19:38:56.494Z,7.63
2023-02-04T19:41:32.680Z,7.58
2023-02-04T19:44:34.606Z,7.58
2023-02-04T19:47:27.088Z,7.58
2023-02-04T19:50:03.399Z,7.56
2023-02-04T19:52:35.943Z,7.53
2023-02-04T19:55:25.712Z,7.50
2023-02-04T19:57:56.196Z,7.52
2023-02-04T20:00:58.920Z,7.48
2023-02-04T20:03:31.427Z,7.50
2023-02-04T20:06:02.962Z,7.38
2023-02-04T20:08:45.933Z,7.45
2023-02-04T20:11:35.133Z,7.52
2023-02-04T20:14:25.874Z,7.54
2023-02-04T20:16:57.526Z,7.50
2023-02-04T20:19:35.271Z,7.43
2023-02-04T20:22:33.063Z,7.42
2023-02-04T20:25:29.025Z,7.43
2023-02-04T20:28:01.036Z,7.40
2023-02-04T20:30:32.042Z,7.41
2023-02-04T20:33:13.675Z,7.43
2023-02-04T20:36:16.648Z,7.42
2023-02-04T20:38:45.921Z,7.37
2023-02-04T20:41:19.914Z,7.42
2023-02-04T20:43:50.189Z,7.36
2023-02-04T20:46:22.815Z,7.37
2023-02-04T20:48:51.288Z,7.42
2023-02-04T20:51:23.438Z,7.39
2023-02-04T20:53:52.497Z,7.38
2023-02-04T20:56:25.504Z,7.38
2023-02-04T20:58:56.602Z,7.22
2023-02-04T21:01:33.856Z,7.32
2023-02-04T21:04:16.234Z,7.31
2023-02-04T21:06:44.347Z,7.26
2023-02-04T21:09:21.036Z,7.18
2023-02-04T21:11:48.991Z,7.22
2023-02-04T21:14:17.023Z,7.22
2023-02-04T21:16:46.290Z,7.23
2023-02-04T21:19:16.215Z,7.24
2023-02-04T21:21:44.128Z,7.19
2023-02-04T21:24:12.192Z,7.21
2023-02-04T21:26:40.511Z,7.23
2023-02-04T21:29:08.547Z,7.22
2023-02-04T21:31:36.608Z,7.21
2023-02-04T21:34:06.065Z,7.18
2023-02-04T21:36:34.005Z,7.18
2023-02-04T21:39:02.078Z,7.20
2023-02-04T21:41:29.982Z,7.15
2023-02-04T21:43:58.126Z,7.13
2023-02-04T21:46:26.113Z,7.11
2023-02-04T21:48:54.152Z,7.15
2023-02-04T21:51:23.490Z,7.17
2023-02-04T21:53:51.421Z,7.11
2023-02-04T21:56:19.360Z,7.09
2023-02-04T21:58:47.286Z,7.10
2023-02-04T22:01:15.180Z,7.10
2023-02-04T22:03:43.151Z,7.08
2023-02-04T22:06:11.296Z,7.09
2023-02-04T22:08:40.599Z,7.11
2023-02-04T22:11:08.609Z,6.99
2023-02-04T22:13:36.519Z,7.02
2023-02-04T22:16:04.549Z,6.98
2023-02-04T22:18:32.505Z,6.96
2023-02-04T22:21:00.508Z,6.96
2023-02-04T22:23:28.447Z,6.91
2023-02-04T22:25:57.701Z,6.95
2023-02-04T22:28:25.577Z,6.91
2023-02-04T22:30:54.384Z,6.88
2023-02-04T22:33:22.353Z,6.86
2023-02-04T22:35:50.257Z,6.93
2023-02-04T22:38:20.093Z,6.96
2023-02-04T22:40:48.949Z,6.97
2023-02-04T22:43:18.239Z,6.94
2023-02-04T22:45:46.136Z,6.93
2023-02-04T22:48:14.086Z,6.92
2023-02-04T22:50:41.995Z,6.86
2023-02-04T22:53:09.922Z,6.81
2023-02-04T22:55:37.777Z,6.82
2023-02-04T22:58:05.701Z,6.81
2023-02-04T23:00:35.079Z,6.76
2023-02-04T23:03:02.988Z,6.69
2023-02-04T23:05:31.126Z,6.66
2023-02-04T23:07:59.191Z,6.61
2023-02-04T23:10:27.149Z,6.62
2023-02-04T23:12:55.036Z,6.57
2023-02-04T23:15:23.107Z,6.52
2023-02-04T23:17:52.797Z,6.44
2023-02-04T23:20:21.002Z,6.35
2023-02-04T23:22:48.996Z,6.43
2023-02-04T23:25:17.041Z,6.40
2023-02-04T23:27:45.058Z,6.29
2023-02-04T23:30:14.495Z,6.25
2023-02-04T23:32:42.472Z,6.32
2023-02-04T23:35:11.794Z,6.23
2023-02-04T23:37:39.851Z,6.26
2023-02-04T23:40:08.696Z,6.33
2023-02-04T23:42:36.614Z,6.36
2023-02-04T23:45:04.946Z,6.24
2023-02-04T23:47:32.914Z,6.18
2023-02-04T23:50:00.952Z,6.24
2023-02-04T23:52:30.305Z,6.21
2023-02-04T23:54:58.250Z,6.19
2023-02-04T23:57:26.218Z,6.13
2023-02-04T23:59:54.213Z,6.07
